createdAt,value
2023-05-03T00:00:10.091Z,19.9117
2023-05-03T00:01:13.971Z,19.9711
2023-05-03T00:02:17.912Z,20.0579
2023-05-03T00:03:21.824Z,19.8988
2023-05-03T00:04:25.694Z,19.7134
2023-05-03T00:05:29.691Z,19.8082
2023-05-03T00:06:33.632Z,19.9239
2023-05-03T00:07:37.503Z,19.9994
2023-05-03T00:08:41.417Z,20.0966
2023-05-03T00:09:45.506Z,19.9936
2023-05-03T00:10:49.424Z,19.7054
2023-05-03T00:11:53.325Z,19.6905
2023-05-03T00:12:58.317Z,19.8291
2023-05-03T00:14:02.200Z,19.9086
2023-05-03T00:15:06.077Z,19.9860
2023-05-03T00:16:09.968Z,19.9878
2023-05-03T00:17:13.958Z,19.8253
2023-05-03T00:18:17.941Z,19.8340
2023-05-03T00:19:31.448Z,19.9097
2023-05-03T00:20:26.529Z,19.9730
2023-05-03T00:21:30.413Z,20.0657
2023-05-03T00:22:34.306Z,20.0332
2023-05-03T00:23:38.194Z,19.7835
2023-05-03T00:24:42.083Z,19.7163
2023-05-03T00:25:42.359Z,19.8421
2023-05-03T00:26:46.265Z,19.9279
2023-05-03T00:27:50.152Z,20.0136
2023-05-03T00:28:54.050Z,20.0606
2023-05-03T00:29:58.021Z,19.8469
2023-05-03T00:31:01.928Z,19.6932
2023-05-03T00:32:05.797Z,19.7811
2023-05-03T00:33:09.732Z,19.8832
2023-05-03T00:34:13.648Z,19.9466
2023-05-03T00:35:17.771Z,20.0201
2023-05-03T00:36:21.667Z,19.8779
2023-05-03T00:37:25.551Z,19.7446
2023-05-03T00:38:29.427Z,19.8289
2023-05-03T00:39:33.307Z,19.9032
2023-05-03T00:40:37.210Z,19.9678
2023-05-03T00:41:41.102Z,20.0452
2023-05-03T00:42:45.000Z,19.8977
2023-05-03T00:43:48.883Z,19.7199
2023-05-03T00:44:54.081Z,19.8013
2023-05-03T00:45:59.349Z,19.8888
2023-05-03T00:46:58.824Z,19.9439
2023-05-03T00:48:02.742Z,20.0365
2023-05-03T00:49:06.651Z,19.9257
2023-05-03T00:50:10.583Z,19.7521
2023-05-03T00:51:14.490Z,19.7866
2023-05-03T00:52:18.361Z,19.8694
2023-05-03T00:53:22.253Z,19.9331
2023-05-03T00:54:26.180Z,20.0227
2023-05-03T00:55:30.043Z,19.9362
2023-05-03T00:56:47.844Z,19.7210
2023-05-03T00:57:34.093Z,19.7846
2023-05-03T00:58:37.982Z,19.8961
2023-05-03T00:59:41.881Z,19.9722
2023-05-03T01:00:45.776Z,20.0612
2023-05-03T01:01:49.691Z,20.0207
2023-05-03T01:02:53.567Z,19.8027
2023-05-03T01:03:57.514Z,19.7613
2023-05-03T01:05:01.517Z,19.8409
2023-05-03T01:06:05.469Z,19.9150
2023-05-03T01:07:09.326Z,19.9776
2023-05-03T01:08:13.233Z,19.9791
2023-05-03T01:09:17.122Z,19.7960
2023-05-03T01:10:21.000Z,19.7986
2023-05-03T01:11:24.881Z,19.8565
2023-05-03T01:12:28.798Z,19.9213
2023-05-03T01:13:32.672Z,20.0025
2023-05-03T01:14:36.580Z,19.9758
2023-05-03T01:15:40.498Z,19.7708
2023-05-03T01:16:44.606Z,19.7771
2023-05-03T01:17:48.563Z,19.8803
2023-05-03T01:18:52.457Z,19.9533
2023-05-03T01:19:56.495Z,20.0450
2023-05-03T01:21:00.391Z,20.0154
2023-05-03T01:22:04.255Z,19.7601
2023-05-03T01:23:08.154Z,19.7254
2023-05-03T01:24:12.038Z,19.8730
2023-05-03T01:25:15.966Z,19.9460
2023-05-03T01:26:19.850Z,20.0448
2023-05-03T01:27:24.061Z,20.0715
2023-05-03T01:28:27.967Z,19.8403
2023-05-03T01:29:31.906Z,19.7488
2023-05-03T01:30:35.794Z,19.8434
2023-05-03T01:31:39.771Z,19.9081
2023-05-03T01:32:43.658Z,19.9749
2023-05-03T01:33:47.517Z,20.0287
2023-05-03T01:34:51.389Z,19.8403
2023-05-03T01:35:55.300Z,19.7279
2023-05-03T01:36:59.229Z,19.8592
2023-05-03T01:38:03.128Z,19.9400
2023-05-03T01:39:07.000Z,20.0256
2023-05-03T01:40:11.018Z,20.1042
2023-05-03T01:41:14.944Z,19.9066
2023-05-03T01:42:18.851Z,19.7074
2023-05-03T01:43:22.772Z,19.7815
2023-05-03T01:44:26.676Z,19.9043
2023-05-03T01:45:30.640Z,19.9769
2023-05-03T01:46:34.557Z,20.0695
2023-05-03T01:47:38.324Z,19.9638
2023-05-03T01:48:42.223Z,19.7319
2023-05-03T01:49:46.127Z,19.7437
2023-05-03T01:50:50.013Z,19.8616
2023-05-03T01:51:53.926Z,19.9315
2023-05-03T01:52:57.949Z,20.0096
2023-05-03T01:54:01.883Z,19.9951
2023-05-03T01:55:05.769Z,19.7860
2023-05-03T01:56:09.676Z,19.7871
2023-05-03T01:57:13.604Z,19.8743
2023-05-03T01:58:17.498Z,19.9317
2023-05-03T01:59:21.388Z,20.0118
2023-05-03T02:00:25.311Z,20.0100
2023-05-03T02:01:29.216Z,19.7755
2023-05-03T02:02:33.150Z,19.7372
2023-05-03T02:03:36.998Z,19.8645
2023-05-03T02:04:41.232Z,19.9524
2023-05-03T02:05:45.185Z,20.0552
2023-05-03T02:06:49.139Z,20.0779
2023-05-03T02:07:53.294Z,19.8521
2023-05-03T02:08:57.173Z,19.7277
2023-05-03T02:10:01.285Z,19.8113
2023-05-03T02:11:02.348Z,19.8997
2023-05-03T02:12:06.280Z,19.9551
2023-05-03T02:13:10.148Z,20.0221
2023-05-03T02:14:14.034Z,19.8674
2023-05-03T02:15:17.945Z,19.7644
2023-05-03T02:16:21.861Z,19.8460
2023-05-03T02:17:25.740Z,19.9048
2023-05-03T02:18:29.628Z,19.9662
2023-05-03T02:19:33.502Z,20.0299
2023-05-03T02:20:37.397Z,19.8434
2023-05-03T02:21:41.307Z,19.7350
2023-05-03T02:22:45.230Z,19.8523
2023-05-03T02:23:49.166Z,19.9270
2023-05-03T02:24:53.030Z,20.0087
2023-05-03T02:25:56.920Z,20.0906
2023-05-03T02:27:00.828Z,19.9199
2023-05-03T02:28:04.756Z,19.7063
2023-05-03T02:29:08.645Z,19.7639
2023-05-03T02:30:12.816Z,19.8752
2023-05-03T02:31:16.775Z,19.9393
2023-05-03T02:32:20.936Z,20.0296
2023-05-03T02:33:24.852Z,19.9569
2023-05-03T02:34:28.751Z,19.7762
2023-05-03T02:35:32.662Z,19.8160
2023-05-03T02:36:36.607Z,19.8939
2023-05-03T02:37:40.513Z,19.9393
2023-05-03T02:38:44.413Z,20.0321
2023-05-03T02:39:48.316Z,19.9756
2023-05-03T02:40:52.216Z,19.8116
2023-05-03T02:41:56.089Z,19.8463
2023-05-03T02:43:00.038Z,19.9128
2023-05-03T02:44:03.941Z,19.9707
2023-05-03T02:45:07.849Z,20.0766
2023-05-03T02:46:11.773Z,19.9796
2023-05-03T02:47:15.908Z,19.7101
2023-05-03T02:48:19.801Z,19.6981
2023-05-03T02:49:23.743Z,19.8389
2023-05-03T02:50:27.646Z,19.9233
2023-05-03T02:51:31.559Z,19.9896
2023-05-03T02:52:35.478Z,20.0074
2023-05-03T02:53:39.366Z,19.7946
2023-05-03T02:54:43.504Z,19.7352
2023-05-03T02:55:47.425Z,19.8759
2023-05-03T02:56:51.341Z,19.9549
2023-05-03T02:57:55.261Z,20.0399
2023-05-03T02:58:59.174Z,20.0917
2023-05-03T03:00:03.277Z,19.8592
2023-05-03T03:01:07.473Z,19.7159
2023-05-03T03:02:11.366Z,19.7998
2023-05-03T03:03:15.336Z,19.9006
2023-05-03T03:04:19.273Z,19.9662
2023-05-03T03:05:23.212Z,20.0448
2023-05-03T03:06:27.123Z,19.8979
2023-05-03T03:07:31.019Z,19.7346
2023-05-03T03:08:34.945Z,19.8055
2023-05-03T03:09:38.880Z,19.8901
2023-05-03T03:10:42.789Z,19.9517
2023-05-03T03:11:46.693Z,20.0287
2023-05-03T03:12:50.893Z,19.9043
2023-05-03T03:13:54.752Z,19.7564
2023-05-03T03:14:58.698Z,19.8331
2023-05-03T03:16:02.614Z,19.8995
2023-05-03T03:17:06.483Z,19.9660
2023-05-03T03:18:10.418Z,20.0501
2023-05-03T03:19:14.316Z,19.9228
2023-05-03T03:20:18.240Z,19.7299
2023-05-03T03:21:22.175Z,19.7960
2023-05-03T03:22:26.086Z,19.9015
2023-05-03T03:23:30.004Z,19.9689
2023-05-03T03:24:33.928Z,20.0666
2023-05-03T03:25:38.017Z,19.9802
2023-05-03T03:26:41.935Z,19.7463
2023-05-03T03:27:45.829Z,19.7415
2023-05-03T03:28:49.743Z,19.8583
2023-05-03T03:29:53.655Z,19.9333
2023-05-03T03:30:57.554Z,20.0023
2023-05-03T03:32:01.490Z,20.0027
2023-05-03T03:33:05.427Z,19.7808
2023-05-03T03:34:09.316Z,19.7332
2023-05-03T03:35:13.205Z,19.8398
2023-05-03T03:36:17.091Z,19.9081
2023-05-03T03:37:20.993Z,19.9718
2023-05-03T03:38:24.892Z,19.9916
2023-05-03T03:39:28.779Z,19.8022
2023-05-03T03:40:32.669Z,19.7857
2023-05-03T03:41:36.570Z,19.8736
2023-05-03T03:42:40.669Z,19.9306
2023-05-03T03:43:44.583Z,20.0065
2023-05-03T03:44:48.471Z,20.0274
2023-05-03T03:45:52.390Z,19.8327
2023-05-03T03:46:56.314Z,19.7982
2023-05-03T03:48:00.231Z,19.8565
2023-05-03T03:49:04.120Z,19.9215
2023-05-03T03:50:08.051Z,19.9902
2023-05-03T03:51:11.983Z,20.0212
2023-05-03T03:52:23.513Z,19.7824
2023-05-03T03:53:27.421Z,19.7285
2023-05-03T03:54:31.309Z,19.8271
2023-05-03T03:55:35.226Z,19.9010
2023-05-03T03:56:39.188Z,19.9638
2023-05-03T03:57:43.112Z,19.9947
2023-05-03T03:58:46.994Z,19.8338
2023-05-03T03:59:50.889Z,19.8055
2023-05-03T04:00:54.779Z,19.9019
2023-05-03T04:01:58.710Z,19.9787
2023-05-03T04:03:03.603Z,20.0864
2023-05-03T04:04:03.865Z,20.0774
2023-05-03T04:05:07.768Z,19.8280
2023-05-03T04:06:11.659Z,19.6760
2023-05-03T04:07:15.544Z,19.7655
2023-05-03T04:08:19.434Z,19.9063
2023-05-03T04:09:30.190Z,19.9902
2023-05-03T04:10:23.478Z,20.0780
2023-05-03T04:11:27.365Z,19.9208
2023-05-03T04:12:27.585Z,19.7013
2023-05-03T04:13:31.482Z,19.7285
2023-05-03T04:14:35.376Z,19.8518
2023-05-03T04:15:39.280Z,19.9279
2023-05-03T04:16:43.235Z,19.9936
2023-05-03T04:17:47.125Z,19.9460
2023-05-03T04:18:51.039Z,19.7788
2023-05-03T04:19:54.894Z,19.8140
2023-05-03T04:20:58.782Z,19.9104
2023-05-03T04:22:02.715Z,19.9742
2023-05-03T04:23:06.592Z,20.0830
2023-05-03T04:24:10.503Z,20.0107
2023-05-03T04:25:14.421Z,19.7715
2023-05-03T04:26:30.746Z,19.7412
2023-05-03T04:27:22.841Z,19.8339
2023-05-03T04:28:26.741Z,19.9015
2023-05-03T04:29:30.673Z,19.9742
2023-05-03T04:30:34.582Z,19.9782
2023-05-03T04:31:38.467Z,19.7853
2023-05-03T04:32:42.467Z,19.8144
2023-05-03T04:33:46.322Z,19.8950
2023-05-03T04:34:51.348Z,19.9506
2023-05-03T04:35:51.082Z,20.0519
2023-05-03T04:36:54.987Z,20.0263
2023-05-03T04:37:58.916Z,19.7724
2023-05-03T04:38:59.766Z,19.7253
2023-05-03T04:40:03.966Z,19.8316
2023-05-03T04:41:08.091Z,19.9128
2023-05-03T04:42:12.026Z,19.9831
2023-05-03T04:43:15.933Z,20.0276
2023-05-03T04:44:19.860Z,19.8460
2023-05-03T04:45:23.892Z,19.7539
2023-05-03T04:46:35.354Z,19.8202
2023-05-03T04:47:28.697Z,19.8930
2023-05-03T04:48:32.570Z,19.9591
2023-05-03T04:49:36.479Z,20.0120
2023-05-03T04:50:40.377Z,19.8231
2023-05-03T04:51:44.274Z,19.7036
2023-05-03T04:52:48.183Z,19.8262
2023-05-03T04:53:52.061Z,19.9164
2023-05-03T04:54:56.208Z,20.0023
2023-05-03T04:56:00.103Z,20.0810
2023-05-03T04:57:03.976Z,19.9077
2023-05-03T04:58:07.886Z,19.7047
2023-05-03T04:59:11.757Z,19.7764
2023-05-03T05:00:15.894Z,19.8939
2023-05-03T05:01:19.819Z,19.9618
2023-05-03T05:02:23.740Z,20.0503
2023-05-03T05:03:27.736Z,19.9562
2023-05-03T05:04:31.685Z,19.7281
2023-05-03T05:05:35.591Z,19.7633
2023-05-03T05:06:39.538Z,19.8979
2023-05-03T05:07:43.442Z,19.9633
2023-05-03T05:08:47.338Z,20.0619
2023-05-03T05:09:51.249Z,20.0301
2023-05-03T05:10:55.160Z,19.7697
2023-05-03T05:11:59.033Z,19.6921
2023-05-03T05:13:02.930Z,19.8087
2023-05-03T05:14:06.813Z,19.9023
2023-05-03T05:15:10.739Z,19.9689
2023-05-03T05:16:14.662Z,20.0016
2023-05-03T05:17:18.797Z,19.8267
2023-05-03T05:18:22.685Z,19.7412
2023-05-03T05:19:26.570Z,19.8578
2023-05-03T05:20:30.471Z,19.9253
2023-05-03T05:21:34.390Z,19.9967
2023-05-03T05:22:38.581Z,20.0744
2023-05-03T05:23:42.466Z,19.8770
2023-05-03T05:24:46.631Z,19.6749
2023-05-03T05:25:50.512Z,19.7528
2023-05-03T05:26:54.388Z,19.8865
2023-05-03T05:27:58.304Z,19.9522
2023-05-03T05:29:02.184Z,20.0361
2023-05-03T05:30:06.154Z,19.9268
2023-05-03T05:31:10.132Z,19.6976
2023-05-03T05:32:13.975Z,19.7346
2023-05-03T05:33:19.096Z,19.8391
2023-05-03T05:34:17.916Z,19.9099
2023-05-03T05:35:21.829Z,19.9689
2023-05-03T05:36:25.839Z,19.9513
2023-05-03T05:37:30.024Z,19.8120
2023-05-03T05:38:33.894Z,19.8371
2023-05-03T05:39:37.801Z,19.8966
2023-05-03T05:40:41.891Z,19.9522
2023-05-03T05:41:45.784Z,20.0448
2023-05-03T05:42:49.709Z,19.9542
2023-05-03T05:43:53.603Z,19.7463
2023-05-03T05:44:57.527Z,19.7595
2023-05-03T05:46:01.439Z,19.8487
2023-05-03T05:47:08.232Z,19.9219
2023-05-03T05:48:07.685Z,20.0009
2023-05-03T05:49:11.612Z,19.9591
2023-05-03T05:50:18.836Z,19.7650
2023-05-03T05:51:17.973Z,19.7841
2023-05-03T05:52:21.891Z,19.8897
2023-05-03T05:53:25.791Z,19.9651
2023-05-03T05:54:30.564Z,20.0712
2023-05-03T05:55:34.560Z,20.0205
2023-05-03T05:56:38.465Z,19.7717
2023-05-03T05:57:42.710Z,19.7074
2023-05-03T05:58:46.614Z,19.8363
2023-05-03T05:59:51.733Z,19.9197
2023-05-03T06:00:51.197Z,19.9793
2023-05-03T06:01:55.104Z,20.0261
2023-05-03T06:02:59.241Z,19.8222
2023-05-03T06:04:03.108Z,19.7152
2023-05-03T06:05:08.024Z,19.8185
2023-05-03T06:06:12.012Z,19.9063
2023-05-03T06:07:15.914Z,19.9573
2023-05-03T06:08:19.843Z,20.0443
2023-05-03T06:09:24.959Z,19.8656
2023-05-03T06:10:24.066Z,19.6926
2023-05-03T06:11:27.994Z,19.7797
2023-05-03T06:12:32.127Z,19.9059
2023-05-03T06:13:36.013Z,19.9709
2023-05-03T06:14:46.212Z,20.0581
2023-05-03T06:15:44.409Z,19.9409
2023-05-03T06:16:48.365Z,19.7221
2023-05-03T06:17:52.293Z,19.7319
2023-05-03T06:18:56.189Z,19.8719
2023-05-03T06:20:00.166Z,19.9451
2023-05-03T06:21:04.137Z,20.0314
2023-05-03T06:22:07.996Z,20.0100
2023-05-03T06:23:12.154Z,19.7639
2023-05-03T06:24:16.067Z,19.7063
2023-05-03T06:25:20.128Z,19.8233
2023-05-03T06:26:24.038Z,19.9277
2023-05-03T06:27:27.980Z,20.0141
2023-05-03T06:28:31.892Z,20.0432
2023-05-03T06:29:35.794Z,19.8184
2023-05-03T06:30:39.740Z,19.7023
2023-05-03T06:31:43.655Z,19.8191
2023-05-03T06:32:47.581Z,19.9084
2023-05-03T06:33:51.495Z,19.9789
2023-05-03T06:34:55.722Z,20.0396
2023-05-03T06:35:59.626Z,19.8643
2023-05-03T06:37:03.516Z,19.7408
2023-05-03T06:38:07.448Z,19.8022
2023-05-03T06:39:11.359Z,19.8779
2023-05-03T06:40:15.275Z,19.9331
2023-05-03T06:41:19.190Z,19.9967
2023-05-03T06:42:24.612Z,19.8351
2023-05-03T06:43:25.742Z,19.7346
2023-05-03T06:44:29.626Z,19.8407
2023-05-03T06:45:33.534Z,19.9010
2023-05-03T06:46:37.467Z,19.9711
2023-05-03T06:47:41.649Z,20.0361
2023-05-03T06:48:45.539Z,19.8679
2023-05-03T06:49:49.429Z,19.6965
2023-05-03T06:50:50.549Z,19.7448
2023-05-03T06:51:54.463Z,19.8596
2023-05-03T06:52:58.378Z,19.9353
2023-05-03T06:54:02.310Z,20.0063
2023-05-03T06:55:06.547Z,19.8865
2023-05-03T06:56:10.433Z,19.7239
2023-05-03T06:57:14.357Z,19.8038
2023-05-03T06:58:18.847Z,19.8881
2023-05-03T06:59:22.738Z,19.9455
2023-05-03T07:00:26.636Z,20.0143
2023-05-03T07:01:30.564Z,19.9084
2023-05-03T07:02:34.503Z,19.7617
2023-05-03T07:03:41.456Z,19.8345
2023-05-03T07:04:40.433Z,19.9111
2023-05-03T07:05:44.338Z,19.9744
2023-05-03T07:06:56.042Z,20.0712
2023-05-03T07:07:52.765Z,19.9417
2023-05-03T07:08:56.693Z,19.7350
2023-05-03T07:10:00.783Z,19.7486
2023-05-03T07:11:04.776Z,19.8561
2023-05-03T07:12:08.673Z,19.9181
2023-05-03T07:13:12.686Z,19.9965
2023-05-03T07:14:16.535Z,19.9502
2023-05-03T07:15:20.449Z,19.7648
2023-05-03T07:16:24.362Z,19.7964
2023-05-03T07:17:28.248Z,19.8725
2023-05-03T07:18:32.118Z,19.9468
2023-05-03T07:19:36.054Z,20.0316
2023-05-03T07:20:39.947Z,19.9700
2023-05-03T07:21:43.846Z,19.7374
2023-05-03T07:22:47.741Z,19.7639
2023-05-03T07:23:51.618Z,19.8643
2023-05-03T07:24:55.513Z,19.9359
2023-05-03T07:25:59.421Z,20.0056
2023-05-03T07:27:03.320Z,19.9974
2023-05-03T07:28:07.222Z,19.7835
2023-05-03T07:29:11.119Z,19.7455
2023-05-03T07:30:15.027Z,19.8625
2023-05-03T07:31:18.943Z,19.9337
2023-05-03T07:32:22.940Z,20.0098
2023-05-03T07:33:27.019Z,20.0379
2023-05-03T07:34:30.921Z,19.8327
2023-05-03T07:35:34.828Z,19.7577
2023-05-03T07:36:38.729Z,19.8256
2023-05-03T07:37:42.927Z,19.8899
2023-05-03T07:38:46.850Z,19.9602
2023-05-03T07:39:50.773Z,19.9847
2023-05-03T07:40:54.756Z,19.7904
2023-05-03T07:41:58.633Z,19.7152
2023-05-03T07:43:02.534Z,19.8082
2023-05-03T07:44:06.433Z,19.9028
2023-05-03T07:45:10.325Z,19.9702
2023-05-03T07:46:14.276Z,20.0089
2023-05-03T07:47:18.118Z,19.8089
2023-05-03T07:48:22.019Z,19.7354
2023-05-03T07:49:25.899Z,19.8625
2023-05-03T07:50:29.789Z,19.9618
2023-05-03T07:51:33.721Z,20.0479
2023-05-03T07:52:45.363Z,20.1202
2023-05-03T07:53:38.669Z,19.8695
2023-05-03T07:54:42.588Z,19.6745
2023-05-03T07:55:46.479Z,19.7290
2023-05-03T07:56:50.365Z,19.8414
2023-05-03T07:57:54.451Z,19.9121
2023-05-03T07:59:08.357Z,19.9782
2023-05-03T08:00:03.224Z,19.8888
2023-05-03T08:01:07.270Z,19.7751
2023-05-03T08:02:11.247Z,19.8647
2023-05-03T08:03:15.522Z,19.9373
2023-05-03T08:04:19.969Z,20.0134
2023-05-03T08:05:24.019Z,20.1008
2023-05-03T08:06:27.992Z,19.9357
2023-05-03T08:07:31.856Z,19.7241
2023-05-03T08:08:35.755Z,19.7252
2023-05-03T08:09:39.684Z,19.8220
2023-05-03T08:10:43.570Z,19.8968
2023-05-03T08:11:47.456Z,19.9622
2023-05-03T08:12:51.410Z,19.9128
2023-05-03T08:13:55.290Z,19.7479
2023-05-03T08:14:59.204Z,19.7889
2023-05-03T08:16:03.122Z,19.8732
2023-05-03T08:17:07.044Z,19.9348
2023-05-03T08:18:11.165Z,20.0214
2023-05-03T08:19:15.070Z,19.9357
2023-05-03T08:20:19.008Z,19.7519
2023-05-03T08:21:22.907Z,19.7806
2023-05-03T08:22:26.888Z,19.8732
2023-05-03T08:23:30.871Z,19.9402
2023-05-03T08:24:34.783Z,20.0327
2023-05-03T08:25:38.703Z,19.9582
2023-05-03T08:26:42.710Z,19.7786
2023-05-03T08:27:46.595Z,19.8160
2023-05-03T08:28:50.479Z,19.8937
2023-05-03T08:29:54.400Z,19.9415
2023-05-03T08:30:58.356Z,20.0530
2023-05-03T08:32:02.245Z,19.9600
2023-05-03T08:33:06.250Z,19.7461
2023-05-03T08:34:10.166Z,19.7553
2023-05-03T08:35:14.082Z,19.8545
2023-05-03T08:36:17.948Z,19.9259
2023-05-03T08:37:21.824Z,20.0043
2023-05-03T08:38:25.717Z,19.9729
2023-05-03T08:39:29.621Z,19.7237
2023-05-03T08:40:33.514Z,19.6925
2023-05-03T08:41:37.394Z,19.8196
2023-05-03T08:42:41.284Z,19.9226
2023-05-03T08:43:45.208Z,19.9949
2023-05-03T08:44:49.130Z,20.0403
2023-05-03T08:45:53.038Z,19.8198
2023-05-03T08:46:56.973Z,19.7350
2023-05-03T08:48:00.950Z,19.8280
2023-05-03T08:49:04.857Z,19.9075
2023-05-03T08:50:08.789Z,20.0784
2023-05-03T08:51:12.747Z,20.4693
2023-05-03T08:52:16.689Z,20.5980
2023-05-03T08:53:20.549Z,20.6707
2023-05-03T08:54:24.447Z,20.6970
2023-05-03T08:55:28.385Z,20.7324
2023-05-03T08:56:32.294Z,20.7782
2023-05-03T08:57:36.204Z,20.8252
2023-05-03T08:58:40.102Z,20.8374
2023-05-03T08:59:44.017Z,20.8775
2023-05-03T09:00:48.046Z,20.8830
2023-05-03T09:01:53.521Z,20.9113
2023-05-03T09:02:53.524Z,20.9231
2023-05-03T09:03:57.506Z,20.9211
2023-05-03T09:05:01.691Z,20.9224
2023-05-03T09:06:05.727Z,20.9311
2023-05-03T09:07:09.673Z,20.9373
2023-05-03T09:08:13.589Z,20.9329
2023-05-03T09:09:17.478Z,20.9367
2023-05-03T09:10:21.682Z,20.9404
2023-05-03T09:11:25.574Z,20.9458
2023-05-03T09:12:29.485Z,20.9469
2023-05-03T09:13:33.476Z,20.9442
2023-05-03T09:14:37.350Z,20.9551
2023-05-03T09:15:41.232Z,20.9649
2023-05-03T09:16:45.189Z,20.9660
2023-05-03T09:17:49.212Z,20.9696
2023-05-03T09:18:53.073Z,20.9671
2023-05-03T09:19:57.040Z,20.9725
2023-05-03T09:21:00.911Z,20.9838
2023-05-03T09:22:04.801Z,20.9956
2023-05-03T09:23:08.694Z,20.9887
2023-05-03T09:24:12.585Z,20.4433
2023-05-03T09:25:16.485Z,19.8919
2023-05-03T09:26:20.495Z,19.4827
2023-05-03T09:27:24.349Z,19.4399
2023-05-03T09:28:28.284Z,19.6353
2023-05-03T09:29:32.196Z,19.8509
2023-05-03T09:30:36.066Z,19.9604
2023-05-03T09:31:40.033Z,19.9366
2023-05-03T09:32:44.089Z,19.7526
2023-05-03T09:33:47.961Z,19.8044
2023-05-03T09:34:51.860Z,19.8903
2023-05-03T09:35:55.749Z,19.9393
2023-05-03T09:36:59.635Z,20.0212
2023-05-03T09:38:03.540Z,19.9695
2023-05-03T09:39:07.447Z,19.9673
2023-05-03T09:40:11.356Z,20.4108
2023-05-03T09:41:15.233Z,20.6416
2023-05-03T09:42:19.150Z,20.8245
2023-05-03T09:43:23.057Z,20.9249
2023-05-03T09:44:27.144Z,20.9631
2023-05-03T09:45:31.073Z,20.9714
2023-05-03T09:46:35.078Z,20.9703
2023-05-03T09:47:38.995Z,20.9820
2023-05-03T09:48:42.893Z,20.9863
2023-05-03T09:49:44.075Z,20.9942
2023-05-03T09:50:47.994Z,20.9938
2023-05-03T09:51:52.202Z,20.9950
2023-05-03T09:52:56.106Z,21.0237
2023-05-03T09:54:03.241Z,20.9549
2023-05-03T09:55:02.041Z,20.3711
2023-05-03T09:56:06.160Z,19.8476
2023-05-03T09:57:26.094Z,19.5089
2023-05-03T09:58:15.072Z,19.4475
2023-05-03T09:59:18.983Z,19.5534
2023-05-03T10:00:22.862Z,19.7372
2023-05-03T10:01:26.768Z,19.8692
2023-05-03T10:02:30.690Z,19.8906
2023-05-03T10:03:34.635Z,19.9424
2023-05-03T10:04:38.610Z,20.0254
2023-05-03T10:05:42.121Z,20.1410
2023-05-03T10:06:46.170Z,20.2831
2023-05-03T10:07:50.131Z,20.2370
2023-05-03T10:08:54.061Z,19.9542
2023-05-03T10:09:57.985Z,19.8930
2023-05-03T10:11:01.971Z,20.4059
2023-05-03T10:12:06.013Z,20.6567
2023-05-03T10:13:12.003Z,20.8381
2023-05-03T10:14:11.003Z,20.9396
2023-05-03T10:15:14.890Z,20.9825
2023-05-03T10:16:18.880Z,20.9923
2023-05-03T10:17:29.093Z,20.9983
2023-05-03T10:18:27.397Z,20.9955
2023-05-03T10:19:31.506Z,21.0174
2023-05-03T10:20:35.412Z,21.0225
2023-05-03T10:21:39.307Z,21.0517
2023-05-03T10:22:43.168Z,21.0808
2023-05-03T10:23:47.074Z,21.0806
2023-05-03T10:24:50.970Z,20.9231
2023-05-03T10:25:55.136Z,20.6669
2023-05-03T10:26:59.029Z,20.1965
2023-05-03T10:28:02.915Z,19.7406
2023-05-03T10:29:06.824Z,19.4807
2023-05-03T10:30:10.740Z,19.5091
2023-05-03T10:31:14.674Z,19.6769
2023-05-03T10:32:18.550Z,19.8512
2023-05-03T10:33:22.433Z,19.9204
2023-05-03T10:34:26.702Z,19.8149
2023-05-03T10:35:30.594Z,19.8351
2023-05-03T10:36:42.228Z,19.9026
2023-05-03T10:37:39.288Z,19.9725
2023-05-03T10:38:43.220Z,20.0601
2023-05-03T10:39:47.113Z,20.0272
2023-05-03T10:40:51.055Z,20.0212
2023-05-03T10:41:54.981Z,20.4411
2023-05-03T10:42:58.902Z,20.6084
2023-05-03T10:44:02.797Z,20.7413
2023-05-03T10:45:06.880Z,20.8036
2023-05-03T10:46:10.846Z,20.8746
2023-05-03T10:47:14.775Z,20.9140
2023-05-03T10:48:18.642Z,20.9400
2023-05-03T10:49:22.553Z,20.9593
2023-05-03T10:50:26.464Z,20.9747
2023-05-03T10:51:30.368Z,20.9983
2023-05-03T10:52:34.286Z,21.0110
2023-05-03T10:53:38.242Z,21.0283
2023-05-03T10:54:42.465Z,21.0646
2023-05-03T10:55:46.390Z,20.9496
2023-05-03T10:56:50.292Z,20.3207
2023-05-03T10:57:54.225Z,19.8213
2023-05-03T10:58:58.148Z,19.4795
2023-05-03T11:00:02.389Z,19.4511
2023-05-03T11:01:06.500Z,19.5750
2023-05-03T11:02:10.427Z,19.7597
2023-05-03T11:03:14.361Z,19.9090
2023-05-03T11:04:18.268Z,19.8129
2023-05-03T11:05:22.169Z,19.7708
2023-05-03T11:06:26.315Z,19.8781
2023-05-03T11:07:30.259Z,19.9435
2023-05-03T11:08:34.174Z,20.0303
2023-05-03T11:09:38.102Z,20.1042
2023-05-03T11:10:42.036Z,19.8839
2023-05-03T11:11:45.950Z,20.1640
2023-05-03T11:12:49.876Z,20.6009
2023-05-03T11:13:53.817Z,20.8450
2023-05-03T11:14:57.710Z,20.9743
2023-05-03T11:16:01.640Z,21.0849
2023-05-03T11:17:05.536Z,21.1523
2023-05-03T11:18:09.528Z,21.1601
2023-05-03T11:19:13.514Z,21.1850
2023-05-03T11:20:17.396Z,21.2224
2023-05-03T11:21:18.228Z,21.2348
2023-05-03T11:22:18.515Z,21.2348
2023-05-03T11:23:20.331Z,21.2527
2023-05-03T11:24:29.019Z,21.2714
2023-05-03T11:25:31.666Z,21.2874
2023-05-03T11:26:37.469Z,21.3109
2023-05-03T11:27:38.305Z,21.1248
2023-05-03T11:28:39.112Z,20.4770
2023-05-03T11:29:43.034Z,19.9811
2023-05-03T11:30:46.985Z,19.6444
2023-05-03T11:31:50.973Z,19.5111
2023-05-03T11:32:54.892Z,19.5850
2023-05-03T11:33:58.836Z,19.7577
2023-05-03T11:35:03.079Z,19.8825
2023-05-03T11:36:07.155Z,19.8420
2023-05-03T11:37:11.050Z,19.7726
2023-05-03T11:38:14.927Z,19.8647
2023-05-03T11:39:20.692Z,19.9275
2023-05-03T11:40:19.610Z,20.0043
2023-05-03T11:41:23.516Z,20.0857
2023-05-03T11:42:27.419Z,19.9242
2023-05-03T11:43:31.367Z,19.7161
2023-05-03T11:44:35.359Z,19.7512
2023-05-03T11:45:39.317Z,19.8498
2023-05-03T11:46:43.572Z,19.9159
2023-05-03T11:47:47.521Z,19.9909
2023-05-03T11:48:51.429Z,19.9522
2023-05-03T11:49:55.565Z,19.7726
2023-05-03T11:50:59.486Z,19.8182
2023-05-03T11:52:03.482Z,19.9077
2023-05-03T11:53:07.341Z,20.3510
2023-05-03T11:54:24.187Z,20.7161
2023-05-03T11:55:15.705Z,20.8950
2023-05-03T11:56:19.614Z,20.9504
2023-05-03T11:57:23.544Z,20.9783
2023-05-03T11:58:27.479Z,21.0119
2023-05-03T11:59:31.381Z,21.0395
2023-05-03T12:00:35.264Z,21.0764
2023-05-03T12:01:39.155Z,21.1131
2023-05-03T12:02:43.217Z,21.1449
2023-05-03T12:03:47.340Z,21.1423
2023-05-03T12:04:52.274Z,21.1587
2023-05-03T12:05:56.685Z,21.1785
2023-05-03T12:07:02.092Z,21.1972
2023-05-03T12:08:01.852Z,21.1977
2023-05-03T12:09:06.432Z,21.1783
2023-05-03T12:10:16.483Z,21.1966
2023-05-03T12:11:17.486Z,21.2249
2023-05-03T12:12:19.856Z,21.2465
2023-05-03T12:13:20.405Z,21.2268
2023-05-03T12:14:24.660Z,21.2384
2023-05-03T12:15:29.978Z,21.2380
2023-05-03T12:16:28.752Z,21.2254
2023-05-03T12:17:32.894Z,21.2110
2023-05-03T12:18:39.262Z,21.2057
2023-05-03T12:19:39.253Z,21.2084
2023-05-03T12:21:29.309Z,21.2153
2023-05-03T12:22:01.002Z,21.2140
2023-05-03T12:22:56.351Z,21.2067
2023-05-03T12:23:57.220Z,21.2009
2023-05-03T12:25:03.994Z,21.1943
2023-05-03T12:26:05.331Z,21.2038
2023-05-03T12:27:04.326Z,21.1894
2023-05-03T12:28:19.729Z,21.2066
2023-05-03T12:29:12.832Z,21.2086
2023-05-03T12:30:18.032Z,21.2184
2023-05-03T12:31:17.904Z,21.2259
2023-05-03T12:32:16.911Z,20.9054
2023-05-03T12:33:22.498Z,20.2949
2023-05-03T12:34:33.682Z,19.8222
2023-05-03T12:35:27.940Z,19.5071
2023-05-03T12:36:27.014Z,19.4901
2023-05-03T12:37:33.414Z,19.6248
2023-05-03T12:38:32.304Z,19.7822
2023-05-03T12:39:39.585Z,19.8865
2023-05-03T12:40:39.504Z,19.8475
2023-05-03T12:42:46.585Z,19.9065
2023-05-03T12:43:52.548Z,19.9816
2023-05-03T12:44:53.462Z,20.0781
2023-05-03T12:46:07.371Z,20.1449
2023-05-03T12:46:59.764Z,19.9310
2023-05-03T12:47:59.624Z,19.6902
2023-05-03T12:49:06.587Z,19.6914
2023-05-03T12:51:19.241Z,19.9020
2023-05-03T12:52:36.239Z,19.9591
2023-05-03T12:53:17.970Z,19.9730